createdAt,value
2018-11-04T00:00:03.263Z,2.81
2018-11-04T00:01:03.153Z,2.87
2018-11-04T00:02:03.126Z,2.87
2018-11-04T00:03:03.099Z,2.97
2018-11-04T00:04:03.079Z,2.97
2018-11-04T00:05:03.051Z,2.95
2018-11-04T00:06:03.030Z,2.95
2018-11-04T00:07:03.002Z,2.87
2018-11-04T00:08:02.980Z,2.87
2018-11-04T00:09:02.957Z,2.96
2018-11-04T00:10:02.929Z,2.96
2018-11-04T00:11:02.904Z,2.93
2018-11-04T00:12:02.882Z,2.93
2018-11-04T00:13:02.885Z,2.90
2018-11-04T00:14:02.827Z,2.96
2018-11-04T00:15:02.804Z,2.90
2018-11-04T00:16:02.783Z,2.90
2018-11-04T00:17:02.754Z,2.97
2018-11-04T00:18:02.728Z,2.97
2018-11-04T00:19:02.712Z,2.95
2018-11-04T00:20:02.681Z,2.96
2018-11-04T00:21:02.657Z,2.79
2018-11-04T00:22:02.630Z,2.75
2018-11-04T00:23:02.610Z,2.60
2018-11-04T00:24:02.627Z,2.57
2018-11-04T00:25:02.559Z,2.46
2018-11-04T00:26:02.536Z,2.42
2018-11-04T00:27:02.525Z,2.34
2018-11-04T00:28:02.488Z,2.20
2018-11-04T00:29:02.462Z,2.14
2018-11-04T00:30:02.435Z,2.12
2018-11-04T00:31:02.415Z,2.14
2018-11-04T00:32:02.391Z,2.16
2018-11-04T00:33:02.360Z,2.10
2018-11-04T00:34:02.334Z,2.20
2018-11-04T00:35:02.315Z,2.18
2018-11-04T00:36:02.283Z,2.21
2018-11-04T00:37:02.258Z,2.31
2018-11-04T00:38:02.248Z,2.43
2018-11-04T00:39:02.208Z,2.46
2018-11-04T00:40:02.185Z,2.46
2018-11-04T00:41:02.168Z,2.61
2018-11-04T00:42:02.139Z,2.59
2018-11-04T00:43:02.109Z,2.72
2018-11-04T00:44:02.087Z,2.74
2018-11-04T00:45:02.062Z,2.69
2018-11-04T00:46:02.049Z,2.67
2018-11-04T00:47:02.015Z,2.69
2018-11-04T00:48:01.990Z,2.67
2018-11-04T00:49:01.973Z,2.74
2018-11-04T00:50:01.951Z,2.64
2018-11-04T00:51:01.917Z,2.72
2018-11-04T00:52:01.890Z,2.69
2018-11-04T00:53:01.868Z,2.69
2018-11-04T00:54:01.838Z,2.67
2018-11-04T00:55:01.832Z,2.67
2018-11-04T00:56:01.791Z,2.79
2018-11-04T00:57:01.773Z,2.77
2018-11-04T00:58:01.739Z,2.78
2018-11-04T00:59:01.719Z,2.79
2018-11-04T01:00:01.695Z,2.82
2018-11-04T01:01:01.666Z,2.82
2018-11-04T01:02:01.642Z,2.78
2018-11-04T01:03:01.613Z,2.82
2018-11-04T01:04:01.595Z,2.78
2018-11-04T01:05:01.575Z,2.78
2018-11-04T01:06:01.542Z,2.77
2018-11-04T01:07:01.515Z,2.75
2018-11-04T01:08:01.493Z,2.77
2018-11-04T01:09:01.489Z,2.82
2018-11-04T01:10:01.446Z,2.81
2018-11-04T01:11:01.415Z,2.78
2018-11-04T01:12:01.394Z,2.81
2018-11-04T01:13:01.375Z,2.81
2018-11-04T01:14:01.343Z,2.77
2018-11-04T01:15:01.323Z,2.78
2018-11-04T01:16:01.292Z,2.79
2018-11-04T01:17:01.267Z,2.82
2018-11-04T01:18:01.247Z,2.77
2018-11-04T01:19:01.219Z,2.81
2018-11-04T01:20:01.201Z,2.78
2018-11-04T01:21:01.199Z,2.79
2018-11-04T01:22:01.145Z,2.74
2018-11-04T01:23:01.123Z,2.79
2018-11-04T01:24:01.093Z,2.72
2018-11-04T01:25:01.070Z,2.69
2018-11-04T01:26:01.046Z,2.67
2018-11-04T01:27:01.019Z,2.67
2018-11-04T01:28:01.001Z,2.71
2018-11-04T01:29:00.973Z,2.66
2018-11-04T01:30:00.971Z,2.69
2018-11-04T01:31:00.925Z,2.69
2018-11-04T01:32:00.896Z,2.72
2018-11-04T01:33:00.874Z,2.64
2018-11-04T01:34:00.849Z,2.61
2018-11-04T01:35:00.823Z,2.56
2018-11-04T01:36:00.813Z,2.53
2018-11-04T01:37:00.788Z,2.46
2018-11-04T01:38:00.749Z,2.45
2018-11-04T01:39:00.730Z,2.49
2018-11-04T01:40:00.703Z,2.45
2018-11-04T01:41:00.679Z,2.48
2018-11-04T01:42:00.648Z,2.49
2018-11-04T01:43:00.627Z,2.54
2018-11-04T01:44:00.601Z,2.49
2018-11-04T01:45:00.576Z,2.48
2018-11-04T01:46:00.553Z,2.52
2018-11-04T01:47:00.527Z,2.48
2018-11-04T01:48:00.500Z,2.42
2018-11-04T01:49:00.487Z,2.30
2018-11-04T01:50:00.454Z,2.21
2018-11-04T01:51:00.423Z,2.14
2018-11-04T01:52:00.399Z,2.07
2018-11-04T01:53:00.374Z,2.02
2018-11-04T01:54:00.350Z,1.84
2018-11-04T01:55:00.325Z,1.76
2018-11-04T01:56:00.300Z,1.66
2018-11-04T01:57:00.275Z,1.73
2018-11-04T01:58:00.250Z,1.65
2018-11-04T01:59:00.225Z,1.62
2018-11-04T02:00:00.204Z,1.70
2018-11-04T02:01:00.178Z,1.69
2018-11-04T02:02:00.152Z,1.72
2018-11-04T02:03:00.128Z,1.68
2018-11-04T02:04:00.101Z,1.73
2018-11-04T02:05:00.085Z,1.80
2018-11-04T02:06:00.051Z,1.81
2018-11-04T02:07:00.026Z,1.80
2018-11-04T02:08:00.004Z,1.83
2018-11-04T02:08:59.978Z,1.95
2018-11-04T02:09:59.950Z,2.02
2018-11-04T02:10:59.927Z,2.03
2018-11-04T02:11:59.903Z,1.93
2018-11-04T02:12:59.886Z,1.95
2018-11-04T02:13:59.858Z,1.95
2018-11-04T02:14:59.825Z,2.02
2018-11-04T02:15:59.801Z,2.06
2018-11-04T02:16:59.776Z,2.05
2018-11-04T02:17:59.759Z,2.16
2018-11-04T02:18:59.730Z,2.18
2018-11-04T02:19:59.701Z,2.20
2018-11-04T02:20:59.678Z,2.25
2018-11-04T02:21:59.650Z,2.24
2018-11-04T02:22:59.626Z,2.21
2018-11-04T02:23:59.606Z,2.23
2018-11-04T02:24:59.577Z,2.23
2018-11-04T02:25:59.550Z,2.21
2018-11-04T02:26:59.528Z,2.28
2018-11-04T02:27:59.517Z,2.25
2018-11-04T02:28:59.477Z,2.20
2018-11-04T02:29:59.452Z,2.12
2018-11-04T02:30:59.427Z,2.24
2018-11-04T02:31:59.412Z,2.25
2018-11-04T02:32:59.379Z,2.24
2018-11-04T02:33:59.352Z,2.23
2018-11-04T02:34:59.327Z,2.25
2018-11-04T02:35:59.301Z,2.31
2018-11-04T02:36:59.278Z,2.34
2018-11-04T02:37:59.253Z,2.41
2018-11-04T02:38:59.227Z,2.46
2018-11-04T02:39:59.203Z,2.43
2018-11-04T02:40:59.179Z,2.42
2018-11-04T02:41:59.155Z,2.48
2018-11-04T02:42:59.128Z,2.57
2018-11-04T02:43:59.105Z,2.59
2018-11-04T02:44:59.082Z,2.49
2018-11-04T02:45:59.055Z,2.48
2018-11-04T02:46:59.143Z,2.53
2018-11-04T02:47:59.003Z,2.48
2018-11-04T02:48:58.975Z,2.48
2018-11-04T02:49:58.952Z,2.52
2018-11-04T02:50:58.936Z,2.53
2018-11-04T02:51:58.905Z,2.52
2018-11-04T02:52:58.878Z,2.52
2018-11-04T02:53:58.853Z,2.42
2018-11-04T02:54:58.828Z,2.45
2018-11-04T02:55:58.802Z,2.49
2018-11-04T02:56:58.780Z,2.52
2018-11-04T02:57:58.751Z,2.53
2018-11-04T02:58:58.735Z,2.43
2018-11-04T02:59:58.703Z,2.46
2018-11-04T03:00:58.677Z,2.48
2018-11-04T03:01:58.698Z,2.53
2018-11-04T03:02:58.626Z,2.49
2018-11-04T03:03:58.601Z,2.45
2018-11-04T03:04:58.579Z,2.41
2018-11-04T03:05:58.551Z,2.28
2018-11-04T03:06:58.527Z,2.12
2018-11-04T03:07:58.503Z,2.16
2018-11-04T03:08:58.483Z,2.00
2018-11-04T03:09:58.450Z,1.98
2018-11-04T03:10:58.428Z,1.90
2018-11-04T03:11:58.404Z,1.83
2018-11-04T03:12:58.380Z,1.80
2018-11-04T03:13:58.356Z,1.80
2018-11-04T03:14:58.332Z,1.77
2018-11-04T03:15:58.306Z,1.80
2018-11-04T03:16:58.286Z,1.83
2018-11-04T03:17:58.252Z,1.81
2018-11-04T03:18:58.229Z,1.90
2018-11-04T03:19:58.204Z,1.79
2018-11-04T03:20:58.179Z,1.84
2018-11-04T03:21:58.165Z,1.84
2018-11-04T03:22:58.131Z,1.81
2018-11-04T03:23:58.104Z,1.93
2018-11-04T03:24:58.080Z,1.91
2018-11-04T03:25:58.056Z,1.93
2018-11-04T03:26:58.027Z,1.98
2018-11-04T03:27:58.014Z,1.88
2018-11-04T03:28:57.986Z,2.00
2018-11-04T03:29:57.952Z,1.88
2018-11-04T03:30:57.934Z,1.69
2018-11-04T03:31:57.902Z,1.84
2018-11-04T03:32:57.879Z,1.83
2018-11-04T03:33:57.853Z,1.88
2018-11-04T03:34:57.828Z,1.88
2018-11-04T03:35:57.805Z,1.86
2018-11-04T03:36:57.838Z,1.99
2018-11-04T03:37:57.753Z,1.98
2018-11-04T03:38:57.728Z,1.93
2018-11-04T03:39:57.703Z,1.98
2018-11-04T03:40:57.683Z,2.06
2018-11-04T03:41:57.651Z,1.95
2018-11-04T03:42:57.626Z,2.18
2018-11-04T03:43:57.601Z,2.18
2018-11-04T03:44:57.579Z,2.21
2018-11-04T03:45:57.550Z,2.25
2018-11-04T03:46:57.528Z,2.25
2018-11-04T03:47:57.500Z,2.31
2018-11-04T03:48:57.488Z,2.38
2018-11-04T03:49:57.453Z,2.38
2018-11-04T03:50:57.426Z,2.43
2018-11-04T03:51:57.405Z,2.34
2018-11-04T03:52:57.385Z,2.36
2018-11-04T03:53:57.350Z,2.42
2018-11-04T03:54:57.326Z,2.41
2018-11-04T03:55:57.305Z,2.42
2018-11-04T03:56:57.286Z,2.43
2018-11-04T03:57:57.255Z,2.45
2018-11-04T03:58:57.226Z,2.45
2018-11-04T03:59:57.206Z,2.48
2018-11-04T04:00:57.180Z,2.34
2018-11-04T04:01:57.151Z,2.21
2018-11-04T04:02:57.124Z,2.18
2018-11-04T04:03:57.103Z,2.12
2018-11-04T04:04:57.077Z,2.03
2018-11-04T04:05:57.051Z,1.99
2018-11-04T04:06:57.025Z,2.02
2018-11-04T04:07:57.001Z,2.02
2018-11-04T04:08:56.977Z,2.16
2018-11-04T04:09:56.958Z,2.14
2018-11-04T04:10:56.926Z,2.16
2018-11-04T04:11:56.900Z,2.14
2018-11-04T04:12:56.875Z,2.17
2018-11-04T04:13:56.849Z,2.14
2018-11-04T04:14:56.824Z,2.17
2018-11-04T04:15:56.802Z,2.25
2018-11-04T04:16:56.777Z,2.27
2018-11-04T04:17:56.757Z,2.27
2018-11-04T04:18:56.725Z,2.17
2018-11-04T04:19:56.700Z,2.23
2018-11-04T04:20:56.676Z,2.35
2018-11-04T04:21:56.651Z,2.34
2018-11-04T04:22:56.625Z,2.38
2018-11-04T04:23:56.600Z,2.35
2018-11-04T04:24:56.576Z,2.28
2018-11-04T04:25:56.553Z,2.30
2018-11-04T04:26:56.526Z,2.35
2018-11-04T04:27:56.504Z,2.35
2018-11-04T04:28:56.494Z,2.31
2018-11-04T04:29:56.451Z,2.36
2018-11-04T04:30:56.430Z,2.28
2018-11-04T04:31:56.402Z,2.28
2018-11-04T04:32:56.390Z,2.24
2018-11-04T04:33:56.350Z,2.24
2018-11-04T04:34:56.325Z,2.10
2018-11-04T04:35:56.300Z,2.07
2018-11-04T04:36:56.277Z,2.02
2018-11-04T04:37:56.248Z,1.95
2018-11-04T04:38:56.228Z,1.79
2018-11-04T04:39:56.203Z,1.66
2018-11-04T04:40:56.173Z,1.63
2018-11-04T04:41:56.147Z,1.59
2018-11-04T04:42:56.122Z,1.58
2018-11-04T04:43:56.099Z,1.70
2018-11-04T04:44:56.074Z,1.65
2018-11-04T04:45:56.049Z,1.76
2018-11-04T04:46:56.027Z,1.80
2018-11-04T04:47:56.001Z,1.76
2018-11-04T04:48:55.975Z,1.66
2018-11-04T04:49:55.951Z,1.79
2018-11-04T04:50:55.924Z,1.72
2018-11-04T04:51:55.903Z,1.62
2018-11-04T04:52:55.875Z,1.68
2018-11-04T04:53:55.852Z,1.80
2018-11-04T04:54:55.823Z,1.80
2018-11-04T04:55:55.797Z,1.79
2018-11-04T04:56:55.775Z,1.79
2018-11-04T04:57:55.749Z,1.83
2018-11-04T04:58:55.725Z,1.86
2018-11-04T04:59:55.702Z,1.88
2018-11-04T05:00:55.672Z,1.86
2018-11-04T05:01:55.661Z,1.84
2018-11-04T05:02:55.620Z,1.84
2018-11-04T05:03:55.595Z,1.86
2018-11-04T05:04:55.577Z,2.00
2018-11-04T05:05:55.545Z,1.88
2018-11-04T05:06:55.521Z,2.00
2018-11-04T05:07:55.498Z,1.91
2018-11-04T05:08:55.480Z,1.91
2018-11-04T05:09:55.443Z,2.14
2018-11-04T05:10:55.423Z,2.16
2018-11-04T05:11:55.395Z,2.27
2018-11-04T05:12:55.371Z,2.21
2018-11-04T05:13:55.346Z,2.20
2018-11-04T05:14:55.320Z,2.24
2018-11-04T05:15:55.298Z,2.18
2018-11-04T05:16:55.270Z,2.16
2018-11-04T05:17:55.243Z,2.23
2018-11-04T05:18:55.219Z,2.14
2018-11-04T05:19:55.195Z,2.23
2018-11-04T05:20:55.170Z,2.24
2018-11-04T05:21:55.146Z,2.14
2018-11-04T05:22:55.118Z,2.14
2018-11-04T05:23:55.092Z,2.10
2018-11-04T05:24:55.068Z,2.10
2018-11-04T05:25:55.045Z,2.14
2018-11-04T05:26:55.021Z,2.18
2018-11-04T05:27:54.993Z,2.25
2018-11-04T05:28:54.967Z,2.23
2018-11-04T05:29:54.941Z,2.30
2018-11-04T05:30:54.920Z,2.30
2018-11-04T05:31:54.895Z,2.35
2018-11-04T05:32:54.866Z,2.34
2018-11-04T05:33:54.840Z,2.21
2018-11-04T05:34:54.816Z,2.25
2018-11-04T05:35:54.792Z,2.18
2018-11-04T05:36:54.767Z,1.98
2018-11-04T05:37:54.742Z,2.10
2018-11-04T05:38:54.717Z,2.17
2018-11-04T05:39:54.694Z,2.17
2018-11-04T05:40:54.665Z,2.14
2018-11-04T05:41:54.643Z,2.16
2018-11-04T05:42:54.618Z,2.21
2018-11-04T05:43:54.595Z,2.24
2018-11-04T05:44:54.569Z,2.27
2018-11-04T05:45:54.539Z,2.34
2018-11-04T05:46:54.518Z,2.42
2018-11-04T05:47:54.491Z,2.45
2018-11-04T05:48:54.465Z,2.52
2018-11-04T05:49:54.440Z,2.46
2018-11-04T05:50:54.418Z,2.59
2018-11-04T05:51:54.393Z,2.59
2018-11-04T05:52:54.367Z,2.61
2018-11-04T05:53:54.343Z,2.71
2018-11-04T05:54:54.314Z,2.69
2018-11-04T05:55:54.292Z,2.66
2018-11-04T05:56:54.266Z,2.67
2018-11-04T05:57:54.239Z,2.69
2018-11-04T05:58:54.220Z,2.69
2018-11-04T05:59:54.191Z,2.71
2018-11-04T06:00:54.167Z,2.78
2018-11-04T06:01:54.150Z,2.71
2018-11-04T06:02:54.115Z,2.81
2018-11-04T06:03:54.092Z,2.85
2018-11-04T06:04:54.066Z,2.85
2018-11-04T06:05:54.046Z,2.85
2018-11-04T06:06:54.016Z,2.82
2018-11-04T06:07:53.995Z,2.85
2018-11-04T06:08:53.967Z,2.89
2018-11-04T06:09:53.940Z,2.96
2018-11-04T06:10:53.917Z,3.02
2018-11-04T06:11:53.893Z,3.06
2018-11-04T06:12:53.867Z,2.93
2018-11-04T06:13:53.848Z,3.00
2018-11-04T06:14:53.814Z,2.99
2018-11-04T06:15:53.795Z,3.03
2018-11-04T06:16:53.772Z,3.00
2018-11-04T06:17:53.743Z,3.08
2018-11-04T06:18:53.719Z,3.10
2018-11-04T06:19:53.691Z,3.14
2018-11-04T06:20:53.667Z,3.05
2018-11-04T06:21:53.642Z,3.10
2018-11-04T06:22:53.619Z,3.02
2018-11-04T06:23:53.593Z,3.00
2018-11-04T06:24:53.567Z,2.93
2018-11-04T06:25:53.547Z,2.97
2018-11-04T06:26:53.522Z,2.99
2018-11-04T06:27:53.495Z,2.99
2018-11-04T06:28:53.469Z,2.99
2018-11-04T06:29:53.444Z,3.06
2018-11-04T06:30:53.423Z,3.05
2018-11-04T06:31:53.394Z,3.06
2018-11-04T06:32:53.372Z,3.08
2018-11-04T06:33:53.344Z,3.17
2018-11-04T06:34:53.321Z,3.06
2018-11-04T06:35:53.295Z,3.02
2018-11-04T06:36:53.270Z,3.06
2018-11-04T06:37:53.246Z,3.05
2018-11-04T06:38:53.220Z,3.11
2018-11-04T06:39:53.197Z,3.17
2018-11-04T06:40:53.224Z,3.20
2018-11-04T06:41:53.149Z,3.26
2018-11-04T06:42:53.124Z,3.24
2018-11-04T06:43:53.096Z,3.31
2018-11-04T06:44:53.080Z,3.26
2018-11-04T06:45:53.045Z,3.29
2018-11-04T06:46:53.081Z,3.33
2018-11-04T06:47:52.997Z,3.36
2018-11-04T06:48:52.972Z,3.32
2018-11-04T06:49:52.948Z,3.42
2018-11-04T06:50:52.925Z,3.43
2018-11-04T06:51:52.901Z,3.50
2018-11-04T06:52:52.879Z,3.35
2018-11-04T06:53:52.852Z,3.45
2018-11-04T06:54:52.826Z,3.47
2018-11-04T06:55:52.808Z,3.47
2018-11-04T06:56:52.781Z,3.47
2018-11-04T06:57:52.748Z,3.45
2018-11-04T06:58:52.723Z,3.54
2018-11-04T06:59:52.715Z,3.51
2018-11-04T07:00:52.677Z,3.51
2018-11-04T07:01:52.652Z,3.52
2018-11-04T07:02:52.627Z,3.45
2018-11-04T07:03:52.605Z,3.54
2018-11-04T07:04:52.585Z,3.55
2018-11-04T07:05:52.550Z,3.54
2018-11-04T07:06:52.531Z,3.55
2018-11-04T07:07:52.504Z,3.52
2018-11-04T07:08:52.504Z,3.58
2018-11-04T07:09:52.452Z,3.60
2018-11-04T07:10:52.439Z,3.61
2018-11-04T07:11:52.405Z,3.73
2018-11-04T07:12:52.383Z,3.69
2018-11-04T07:13:52.361Z,3.68
2018-11-04T07:14:52.332Z,3.60
2018-11-04T07:15:52.307Z,3.61
2018-11-04T07:16:52.284Z,3.66
2018-11-04T07:17:52.261Z,3.66
2018-11-04T07:18:52.245Z,3.69
2018-11-04T07:19:52.344Z,3.70
2018-11-04T07:20:52.184Z,3.75
2018-11-04T07:21:52.166Z,3.75
2018-11-04T07:22:52.137Z,3.76
2018-11-04T07:23:52.113Z,3.75
2018-11-04T07:24:52.086Z,3.80
2018-11-04T07:25:52.062Z,3.75
2018-11-04T07:26:52.034Z,3.73
2018-11-04T07:27:52.011Z,3.80
2018-11-04T07:28:51.995Z,3.76
2018-11-04T07:29:51.961Z,3.84
2018-11-04T07:30:51.941Z,3.90
2018-11-04T07:31:51.935Z,3.91
2018-11-04T07:32:51.892Z,3.94
2018-11-04T07:33:51.864Z,3.83
2018-11-04T07:34:51.840Z,3.91
2018-11-04T07:35:51.818Z,3.96
2018-11-04T07:36:51.792Z,3.93
2018-11-04T07:37:51.767Z,3.97
2018-11-04T07:38:51.748Z,4.05
2018-11-04T07:39:51.718Z,4.06
2018-11-04T07:40:51.694Z,4.09
2018-11-04T07:41:51.674Z,4.04
2018-11-04T07:42:51.642Z,4.14
2018-11-04T07:43:51.619Z,4.15
2018-11-04T07:44:51.604Z,4.24
2018-11-04T07:45:51.571Z,4.20
2018-11-04T07:46:51.546Z,4.23
2018-11-04T07:47:51.524Z,4.26
2018-11-04T07:48:51.515Z,4.23
2018-11-04T07:49:51.476Z,4.30
2018-11-04T07:50:51.459Z,4.26
2018-11-04T07:51:51.425Z,4.26
2018-11-04T07:52:51.399Z,4.29
2018-11-04T07:53:51.380Z,4.30
2018-11-04T07:54:51.352Z,4.29
2018-11-04T07:55:51.328Z,4.32
2018-11-04T07:56:51.396Z,4.27
2018-11-04T07:57:51.281Z,4.27
2018-11-04T07:58:51.254Z,4.32
2018-11-04T07:59:51.231Z,4.30
2018-11-04T08:00:51.253Z,4.48
2018-11-04T08:01:51.194Z,4.36
2018-11-04T08:02:51.177Z,4.42
2018-11-04T08:03:51.133Z,4.51
2018-11-04T08:04:51.119Z,4.45
2018-11-04T08:05:51.098Z,4.47
2018-11-04T08:06:51.061Z,4.51
2018-11-04T08:07:51.043Z,4.41
2018-11-04T08:08:51.016Z,4.42
2018-11-04T08:15:18.764Z,4.80
2018-11-04T08:16:18.732Z,4.67
2018-11-04T08:17:18.707Z,4.67
2018-11-04T08:18:18.686Z,4.75
2018-11-04T08:19:18.659Z,4.80
2018-11-04T08:20:18.639Z,4.82
2018-11-04T08:21:18.673Z,4.80
2018-11-04T08:22:18.596Z,4.88
2018-11-04T08:23:18.566Z,4.89
2018-11-04T08:24:18.538Z,4.85
2018-11-04T08:25:18.525Z,4.82
2018-11-04T08:26:18.499Z,4.80
2018-11-04T08:27:18.469Z,4.88
2018-11-04T08:28:18.446Z,4.88
2018-11-04T08:29:18.420Z,5.00
2018-11-04T08:30:18.409Z,4.99
2018-11-04T08:31:18.369Z,4.94
2018-11-04T08:32:18.350Z,4.97
2018-11-04T08:33:18.337Z,4.94
2018-11-04T08:34:18.296Z,4.92
2018-11-04T08:35:18.273Z,5.00
2018-11-04T08:36:18.248Z,4.96
2018-11-04T08:37:18.228Z,5.02
2018-11-04T08:38:18.204Z,5.02
2018-11-04T08:39:18.182Z,5.06
2018-11-04T08:40:18.233Z,5.10
2018-11-04T08:41:18.131Z,5.18
2018-11-04T08:42:18.114Z,5.18
2018-11-04T08:43:18.093Z,5.10
2018-11-04T08:44:18.058Z,5.21
2018-11-04T08:45:18.038Z,5.21
2018-11-04T08:46:18.019Z,5.21
2018-11-04T08:47:17.987Z,5.21
2018-11-04T08:48:17.964Z,5.31
2018-11-04T08:49:17.945Z,5.38
2018-11-04T08:50:17.925Z,5.31
2018-11-04T08:51:17.902Z,5.40
2018-11-04T08:52:17.873Z,5.31
2018-11-04T08:53:17.844Z,5.45
2018-11-04T08:54:17.822Z,5.42
2018-11-04T08:55:17.796Z,5.43
2018-11-04T08:56:17.768Z,5.51
2018-11-04T08:57:17.753Z,5.53
2018-11-04T08:58:17.728Z,5.51
2018-11-04T08:59:17.705Z,5.51
2018-11-04T09:00:17.681Z,5.51
2018-11-04T09:01:17.651Z,5.51
2018-11-04T09:02:17.634Z,5.71
2018-11-04T09:03:17.606Z,5.61
2018-11-04T09:04:17.583Z,5.65
2018-11-04T09:05:17.558Z,5.65
2018-11-04T09:06:17.547Z,5.60
2018-11-04T09:07:17.510Z,5.61
2018-11-04T09:08:17.491Z,5.58
2018-11-04T09:09:17.463Z,5.63
2018-11-04T09:10:17.436Z,5.61
2018-11-04T09:11:17.416Z,5.64
2018-11-04T09:12:17.388Z,5.75
2018-11-04T09:13:17.369Z,5.68
2018-11-04T09:14:17.442Z,5.78
2018-11-04T09:15:17.319Z,5.75
2018-11-04T09:16:17.295Z,5.83
2018-11-04T09:17:17.277Z,5.85
2018-11-04T09:18:17.250Z,5.78
2018-11-04T09:19:17.221Z,5.90
2018-11-04T09:20:17.199Z,5.85
2018-11-04T09:21:17.173Z,5.94
2018-11-04T09:22:17.244Z,5.96
2018-11-04T09:23:17.126Z,6.00
2018-11-04T09:24:17.102Z,5.97
2018-11-04T09:25:17.084Z,5.93
2018-11-04T09:26:17.054Z,6.00
2018-11-04T09:27:17.033Z,6.03
2018-11-04T09:28:17.010Z,5.97
2018-11-04T09:29:17.073Z,6.04
2018-11-04T09:30:16.983Z,6.03
2018-11-04T09:31:16.938Z,6.04
2018-11-04T09:32:16.917Z,6.03
2018-11-04T09:33:16.893Z,6.08
2018-11-04T09:34:16.865Z,6.06
2018-11-04T09:35:16.944Z,6.21
2018-11-04T09:36:16.941Z,6.18
2018-11-04T09:37:16.804Z,6.15
2018-11-04T09:38:16.772Z,6.27
2018-11-04T09:39:16.750Z,6.28
2018-11-04T09:40:16.735Z,6.37
2018-11-04T09:41:16.708Z,6.34
2018-11-04T09:42:16.685Z,6.37
2018-11-04T09:43:16.656Z,6.40
2018-11-04T09:44:16.631Z,6.37
2018-11-04T09:45:16.618Z,6.38
2018-11-04T09:46:16.590Z,6.49
2018-11-04T09:47:16.563Z,6.43
2018-11-04T09:48:16.539Z,6.40
2018-11-04T09:49:16.514Z,6.43
2018-11-04T09:50:16.493Z,6.52
2018-11-04T09:51:16.476Z,6.44
2018-11-04T09:52:16.444Z,6.44
2018-11-04T09:53:16.426Z,6.52
2018-11-04T09:54:16.406Z,6.56
2018-11-04T09:55:16.378Z,6.54
2018-11-04T09:56:16.385Z,6.61
2018-11-04T09:57:16.326Z,6.67
2018-11-04T09:58:16.312Z,6.62
2018-11-04T09:59:16.283Z,6.66
2018-11-04T10:00:16.260Z,6.73
2018-11-04T10:01:16.237Z,6.69
2018-11-04T10:02:16.211Z,6.76
2018-11-04T10:03:16.188Z,6.80
2018-11-04T10:04:16.173Z,6.88
2018-11-04T10:05:16.152Z,6.84
2018-11-04T10:06:16.126Z,6.80
2018-11-04T10:07:16.174Z,6.84
2018-11-04T10:08:16.082Z,6.91
2018-11-04T10:09:16.056Z,6.95
2018-11-04T10:10:16.024Z,6.92
2018-11-04T10:11:16.015Z,6.92
2018-11-04T10:12:15.975Z,6.95
2018-11-04T10:13:16.007Z,7.05
2018-11-04T10:14:15.936Z,7.10
2018-11-04T10:15:15.914Z,7.15
2018-11-04T10:16:15.957Z,7.03
2018-11-04T10:17:15.868Z,7.05
2018-11-04T10:18:15.842Z,7.28
2018-11-04T10:19:15.987Z,7.24
2018-11-04T10:20:16.063Z,7.25
2018-11-04T10:21:15.767Z,7.28
2018-11-04T10:22:15.752Z,7.23
2018-11-04T10:23:15.722Z,7.23
2018-11-04T10:24:15.704Z,7.32
2018-11-04T10:25:15.674Z,7.35
2018-11-04T10:26:15.652Z,7.37
2018-11-04T10:27:15.629Z,7.42
2018-11-04T10:28:15.622Z,7.42
2018-11-04T10:29:15.587Z,7.35
2018-11-04T10:30:15.579Z,7.45
2018-11-04T10:31:15.557Z,7.42
2018-11-04T10:32:15.511Z,7.40
2018-11-04T10:33:15.497Z,7.50
2018-11-04T10:34:15.480Z,7.43
2018-11-04T10:35:15.447Z,7.46
2018-11-04T10:36:15.438Z,7.46
2018-11-04T10:37:15.443Z,7.43
2018-11-04T10:38:15.375Z,7.42
2018-11-04T10:39:15.352Z,7.48
2018-11-04T10:40:15.328Z,7.42
2018-11-04T10:41:15.305Z,7.45
2018-11-04T10:42:15.294Z,7.49
2018-11-04T10:43:15.260Z,7.57
2018-11-04T10:44:15.235Z,7.53
2018-11-04T10:45:15.215Z,7.52
2018-11-04T10:46:15.196Z,7.58
2018-11-04T10:47:15.186Z,7.61
2018-11-04T10:48:15.145Z,7.63
2018-11-04T10:49:15.160Z,7.58
2018-11-04T10:50:15.105Z,7.52
2018-11-04T10:51:15.078Z,7.57
2018-11-04T10:52:15.065Z,7.64
2018-11-04T10:53:15.043Z,7.55
2018-11-04T10:54:15.008Z,7.43
2018-11-04T10:55:14.986Z,7.55
2018-11-04T10:56:14.963Z,7.52
2018-11-04T10:57:14.940Z,7.53
2018-11-04T10:58:14.937Z,7.50
2018-11-04T10:59:14.893Z,7.63
2018-11-04T11:00:14.873Z,7.53
2018-11-04T11:01:14.854Z,7.69
2018-11-04T11:02:14.823Z,7.64
2018-11-04T11:03:14.812Z,7.60
2018-11-04T11:04:14.774Z,7.67
2018-11-04T11:05:14.753Z,7.68
2018-11-04T11:06:14.739Z,7.71
2018-11-04T11:07:14.711Z,7.79
2018-11-04T11:08:14.682Z,7.74
2018-11-04T11:09:14.674Z,7.80
2018-11-04T11:10:14.649Z,7.75
2018-11-04T11:11:14.628Z,7.75
2018-11-04T11:12:14.597Z,7.82
2018-11-04T11:13:14.574Z,7.80
2018-11-04T11:14:14.546Z,7.82
2018-11-04T11:15:14.525Z,7.86
2018-11-04T11:16:14.506Z,7.87
2018-11-04T11:17:14.485Z,7.92
2018-11-04T11:18:14.469Z,7.92
2018-11-04T11:19:14.437Z,8.00
2018-11-04T11:20:14.425Z,7.97
2018-11-04T11:21:14.391Z,8.02
2018-11-04T11:22:14.372Z,8.00
2018-11-04T11:23:14.495Z,8.02
2018-11-04T11:24:14.318Z,8.04
2018-11-04T11:25:14.299Z,8.08
2018-11-04T11:26:14.273Z,8.11
2018-11-04T11:27:14.251Z,8.15
2018-11-04T11:28:14.235Z,8.16
2018-11-04T11:29:14.204Z,8.23
2018-11-04T11:30:14.319Z,8.11
2018-11-04T11:31:14.159Z,8.20
2018-11-04T11:32:14.147Z,8.22
2018-11-04T11:33:14.121Z,8.16
2018-11-04T11:34:14.091Z,8.25
2018-11-04T11:35:14.069Z,8.33
2018-11-04T11:36:14.051Z,8.34
2018-11-04T11:37:14.102Z,8.30
2018-11-04T11:38:14.002Z,8.36
2018-11-04T11:39:13.991Z,8.40
2018-11-04T11:40:13.962Z,8.30
2018-11-04T11:41:13.938Z,8.37
2018-11-04T11:42:13.909Z,8.36
2018-11-04T11:43:13.887Z,8.40
2018-11-04T11:44:13.864Z,8.43
2018-11-04T11:45:13.841Z,8.47
2018-11-04T11:46:13.832Z,8.47
2018-11-04T11:47:13.797Z,8.44
2018-11-04T11:48:13.773Z,8.53
2018-11-04T11:49:13.758Z,8.45
2018-11-04T11:50:13.728Z,8.50
2018-11-04T11:51:13.714Z,8.41
2018-11-04T11:52:13.685Z,8.52
2018-11-04T11:53:13.662Z,8.53
2018-11-04T11:54:13.636Z,8.55
2018-11-04T11:55:13.615Z,8.56
2018-11-04T11:56:13.604Z,8.58
2018-11-04T11:57:13.578Z,8.59
2018-11-04T11:58:13.548Z,8.55
2018-11-04T11:59:13.596Z,8.68
2018-11-04T12:00:13.501Z,8.55
2018-11-04T12:01:13.477Z,8.55
2018-11-04T12:02:13.510Z,8.53
2018-11-04T12:03:13.435Z,8.59
2018-11-04T12:04:13.410Z,8.63
2018-11-04T12:05:13.388Z,8.62
2018-11-04T12:06:13.364Z,8.59
2018-11-04T12:07:13.351Z,8.70
2018-11-04T12:08:13.324Z,8.63
2018-11-04T12:09:13.308Z,8.59
2018-11-04T12:10:13.274Z,8.65
2018-11-04T12:11:13.257Z,8.59
2018-11-04T12:12:13.245Z,8.66
2018-11-04T12:13:13.207Z,8.77
2018-11-04T12:14:13.248Z,8.79
2018-11-04T12:15:13.160Z,8.79
2018-11-04T12:16:13.145Z,8.81
2018-11-04T12:17:13.121Z,8.79
2018-11-04T12:18:13.098Z,8.91
2018-11-04T12:19:13.071Z,8.81
2018-11-04T12:20:13.052Z,8.79
2018-11-04T12:21:13.032Z,8.92
2018-11-04T12:22:13.006Z,8.91
2018-11-04T12:23:12.981Z,8.99
2018-11-04T12:24:12.969Z,8.98
2018-11-04T12:25:12.936Z,8.98
2018-11-04T12:26:12.920Z,8.99
2018-11-04T12:27:12.891Z,8.96
2018-11-04T12:28:12.868Z,9.04
2018-11-04T12:29:12.861Z,9.01
2018-11-04T12:30:12.832Z,9.13
2018-11-04T12:31:12.816Z,9.14
2018-11-04T12:32:12.780Z,9.13
2018-11-04T12:33:12.757Z,9.14
2018-11-04T12:34:12.736Z,9.14
2018-11-04T12:35:12.760Z,9.10
2018-11-04T12:36:12.693Z,9.14
2018-11-04T12:37:12.668Z,9.14
2018-11-04T12:38:12.648Z,9.17
2018-11-04T12:39:12.623Z,9.11
2018-11-04T12:40:12.610Z,9.11
2018-11-04T12:41:12.582Z,9.20
2018-11-04T12:42:12.563Z,9.20
2018-11-04T12:43:12.534Z,9.24
2018-11-04T12:44:12.511Z,9.29
2018-11-04T12:45:12.497Z,9.31
2018-11-04T12:46:12.469Z,9.40
2018-11-04T12:47:12.444Z,9.32
2018-11-04T12:48:12.430Z,9.33
2018-11-04T12:49:12.398Z,9.28
2018-11-04T12:50:12.377Z,9.43
2018-11-04T12:51:12.358Z,9.31
2018-11-04T12:52:12.356Z,9.42
2018-11-04T12:53:12.308Z,9.47
2018-11-04T12:54:12.288Z,9.46
2018-11-04T12:55:12.275Z,9.54
2018-11-04T12:56:12.255Z,9.54
2018-11-04T12:57:12.224Z,9.48
2018-11-04T12:58:12.198Z,9.54
2018-11-04T12:59:12.184Z,9.58
2018-11-04T13:00:12.154Z,9.56
2018-11-04T13:01:12.136Z,9.58
2018-11-04T13:02:12.114Z,9.58
2018-11-04T13:03:12.087Z,9.64
2018-11-04T13:04:12.061Z,9.57
2018-11-04T13:05:12.042Z,9.66
2018-11-04T13:06:12.024Z,9.65
2018-11-04T13:07:12.006Z,9.74
2018-11-04T13:08:11.980Z,9.60
2018-11-04T13:09:11.955Z,9.69
2018-11-04T13:10:11.987Z,9.75
2018-11-04T13:11:11.984Z,9.68
2018-11-04T13:12:11.889Z,9.74
2018-11-04T13:13:11.879Z,9.69
2018-11-04T13:14:11.844Z,9.68
2018-11-04T13:15:11.821Z,9.75
2018-11-04T13:16:11.800Z,9.69
2018-11-04T13:17:11.779Z,9.68
2018-11-04T13:18:11.762Z,9.79
2018-11-04T13:19:11.732Z,9.76
2018-11-04T13:20:11.709Z,9.72
2018-11-04T13:21:11.785Z,9.76
2018-11-04T13:22:11.674Z,9.84
2018-11-04T13:23:11.663Z,9.79